sensor_id;sensor_type;location;lat;lon;timestamp;P1;P2;P0
33264;PMS5003;31404;53.974;-1.086;2023-04-21T00:00:35;10;10;
33264;PMS5003;31404;53.974;-1.086;2023-04-21T00:05:34;10;8;
33264;PMS5003;31404;53.974;-1.086;2023-04-21T00:15:36;11;10;
33264;PMS5003;31404;53.974;-1.086;2023-04-21T00:20:35;12;10;
33264;PMS5003;31404;53.974;-1.086;2023-04-21T00:25:34;11;11;
33264;PMS5003;31404;53.974;-1.086;2023-04-21T00:30:35;15;13;
33264;PMS5003;31404;53.974;-1.086;2023-04-21T00:35:36;12;11;
33264;PMS5003;31404;53.974;-1.086;2023-04-21T00:40:39;13;11;
33264;PMS5003;31404;53.974;-1.086;2023-04-21T00:45:34;17;11;
33264;PMS5003;31404;53.974;-1.086;2023-04-21T00:50:36;14;11;
33264;PMS5003;31404;53.974;-1.086;2023-04-21T01:00:34;16;13;
33264;PMS5003;31404;53.974;-1.086;2023-04-21T01:05:35;12;8;
33264;PMS5003;31404;53.974;-1.086;2023-04-21T01:10:34;8;8;
33264;PMS5003;31404;53.974;-1.086;2023-04-21T01:15:35;13;11;
33264;PMS5003;31404;53.974;-1.086;2023-04-21T01:20:34;19;10;
33264;PMS5003;31404;53.974;-1.086;2023-04-21T01:25:33;19;16;
33264;PMS5003;31404;53.974;-1.086;2023-04-21T01:30:34;11;9;
33264;PMS5003;31404;53.974;-1.086;2023-04-21T01:35:34;13;11;
33264;PMS5003;31404;53.974;-1.086;2023-04-21T01:40:35;12;9;
33264;PMS5003;31404;53.974;-1.086;2023-04-21T01:45:34;11;11;
33264;PMS5003;31404;53.974;-1.086;2023-04-21T01:50:35;17;12;
33264;PMS5003;31404;53.974;-1.086;2023-04-21T01:55:33;13;12;
33264;PMS5003;31404;53.974;-1.086;2023-04-21T02:00:35;15;13;
33264;PMS5003;31404;53.974;-1.086;2023-04-21T02:05:34;12;10;
33264;PMS5003;31404;53.974;-1.086;2023-04-21T02:10:34;14;13;
33264;PMS5003;31404;53.974;-1.086;2023-04-21T02:15:36;19;13;
33264;PMS5003;31404;53.974;-1.086;2023-04-21T02:20:37;14;13;
33264;PMS5003;31404;53.974;-1.086;2023-04-21T02:25:34;18;14;
33264;PMS5003;31404;53.974;-1.086;2023-04-21T02:30:34;22;18;
33264;PMS5003;31404;53.974;-1.086;2023-04-21T02:35:34;23;18;
33264;PMS5003;31404;53.974;-1.086;2023-04-21T02:40:34;21;18;
33264;PMS5003;31404;53.974;-1.086;2023-04-21T02:45:35;26;19;
33264;PMS5003;31404;53.974;-1.086;2023-04-21T02:50:34;24;19;
33264;PMS5003;31404;53.974;-1.086;2023-04-21T02:55:33;25;19;
33264;PMS5003;31404;53.974;-1.086;2023-04-21T03:00:35;15;13;
33264;PMS5003;31404;53.974;-1.086;2023-04-21T03:05:34;17;15;
33264;PMS5003;31404;53.974;-1.086;2023-04-21T03:10:36;20;17;
33264;PMS5003;31404;53.974;-1.086;2023-04-21T03:15:34;25;20;
33264;PMS5003;31404;53.974;-1.086;2023-04-21T03:20:34;18;14;
33264;PMS5003;31404;53.974;-1.086;2023-04-21T03:25:34;22;22;
33264;PMS5003;31404;53.974;-1.086;2023-04-21T03:30:34;28;22;
33264;PMS5003;31404;53.974;-1.086;2023-04-21T03:35:34;23;21;
33264;PMS5003;31404;53.974;-1.086;2023-04-21T03:40:34;25;24;
33264;PMS5003;31404;53.974;-1.086;2023-04-21T03:45:34;17;15;
33264;PMS5003;31404;53.974;-1.086;2023-04-21T03:50:34;19;18;
33264;PMS5003;31404;53.974;-1.086;2023-04-21T03:55:34;17;17;
33264;PMS5003;31404;53.974;-1.086;2023-04-21T04:00:41;32;27;
33264;PMS5003;31404;53.974;-1.086;2023-04-21T04:05:34;18;16;
33264;PMS5003;31404;53.974;-1.086;2023-04-21T04:10:42;21;19;
33264;PMS5003;31404;53.974;-1.086;2023-04-21T04:15:33;16;13;
33264;PMS5003;31404;53.974;-1.086;2023-04-21T04:20:34;19;15;
33264;PMS5003;31404;53.974;-1.086;2023-04-21T04:25:34;20;12;
33264;PMS5003;31404;53.974;-1.086;2023-04-21T04:30:34;21;18;
33264;PMS5003;31404;53.974;-1.086;2023-04-21T04:35:34;21;19;
33264;PMS5003;31404;53.974;-1.086;2023-04-21T04:40:34;17;17;
33264;PMS5003;31404;53.974;-1.086;2023-04-21T04:45:34;22;16;
33264;PMS5003;31404;53.974;-1.086;2023-04-21T04:50:34;18;16;
33264;PMS5003;31404;53.974;-1.086;2023-04-21T04:55:34;26;18;
33264;PMS5003;31404;53.974;-1.086;2023-04-21T05:00:34;17;16;
33264;PMS5003;31404;53.974;-1.086;2023-04-21T05:05:34;26;22;
33264;PMS5003;31404;53.974;-1.086;2023-04-21T05:10:33;15;12;
33264;PMS5003;31404;53.974;-1.086;2023-04-21T05:15:34;19;17;
33264;PMS5003;31404;53.974;-1.086;2023-04-21T05:20:34;20;18;
33264;PMS5003;31404;53.974;-1.086;2023-04-21T05:25:36;21;20;
33264;PMS5003;31404;53.974;-1.086;2023-04-21T05:30:34;23;20;
33264;PMS5003;31404;53.974;-1.086;2023-04-21T05:35:34;21;18;
33264;PMS5003;31404;53.974;-1.086;2023-04-21T05:40:35;17;14;
33264;PMS5003;31404;53.974;-1.086;2023-04-21T05:50:34;22;18;
33264;PMS5003;31404;53.974;-1.086;2023-04-21T05:55:34;26;23;
33264;PMS5003;31404;53.974;-1.086;2023-04-21T06:00:34;21;18;
33264;PMS5003;31404;53.974;-1.086;2023-04-21T06:05:35;16;16;
33264;PMS5003;31404;53.974;-1.086;2023-04-21T06:10:35;20;17;
33264;PMS5003;31404;53.974;-1.086;2023-04-21T06:15:35;27;20;
33264;PMS5003;31404;53.974;-1.086;2023-04-21T06:20:34;18;13;
33264;PMS5003;31404;53.974;-1.086;2023-04-21T06:25:34;24;20;
33264;PMS5003;31404;53.974;-1.086;2023-04-21T06:30:35;22;18;
33264;PMS5003;31404;53.974;-1.086;2023-04-21T06:35:34;24;17;
33264;PMS5003;31404;53.974;-1.086;2023-04-21T06:40:39;16;15;
33264;PMS5003;31404;53.974;-1.086;2023-04-21T06:45:35;17;15;
33264;PMS5003;31404;53.974;-1.086;2023-04-21T06:50:34;16;16;
33264;PMS5003;31404;53.974;-1.086;2023-04-21T06:55:34;21;17;
33264;PMS5003;31404;53.974;-1.086;2023-04-21T07:00:35;23;18;
33264;PMS5003;31404;53.974;-1.086;2023-04-21T07:05:34;22;18;
33264;PMS5003;31404;53.974;-1.086;2023-04-21T07:10:34;24;20;
33264;PMS5003;31404;53.974;-1.086;2023-04-21T07:15:34;22;16;
33264;PMS5003;31404;53.974;-1.086;2023-04-21T07:20:34;17;15;
33264;PMS5003;31404;53.974;-1.086;2023-04-21T07:25:34;20;19;
33264;PMS5003;31404;53.974;-1.086;2023-04-21T07:30:34;23;20;
33264;PMS5003;31404;53.974;-1.086;2023-04-21T07:35:34;22;17;
33264;PMS5003;31404;53.974;-1.086;2023-04-21T07:40:34;18;18;
33264;PMS5003;31404;53.974;-1.086;2023-04-21T07:45:34;19;16;
33264;PMS5003;31404;53.974;-1.086;2023-04-21T07:50:34;19;17;
33264;PMS5003;31404;53.974;-1.086;2023-04-21T07:55:34;17;17;
33264;PMS5003;31404;53.974;-1.086;2023-04-21T08:00:34;19;17;
33264;PMS5003;31404;53.974;-1.086;2023-04-21T08:05:34;22;18;
33264;PMS5003;31404;53.974;-1.086;2023-04-21T08:10:34;22;19;
33264;PMS5003;31404;53.974;-1.086;2023-04-21T08:15:34;19;18;
33264;PMS5003;31404;53.974;-1.086;2023-04-21T08:20:34;18;15;
33264;PMS5003;31404;53.974;-1.086;2023-04-21T08:25:33;26;19;
33264;PMS5003;31404;53.974;-1.086;2023-04-21T08:30:34;24;19;
33264;PMS5003;31404;53.974;-1.086;2023-04-21T08:35:34;23;21;
33264;PMS5003;31404;53.974;-1.086;2023-04-21T08:40:35;20;18;
33264;PMS5003;31404;53.974;-1.086;2023-04-21T08:45:34;18;17;
33264;PMS5003;31404;53.974;-1.086;2023-04-21T08:50:34;24;21;
33264;PMS5003;31404;53.974;-1.086;2023-04-21T08:55:34;23;22;
33264;PMS5003;31404;53.974;-1.086;2023-04-21T09:00:34;17;14;
33264;PMS5003;31404;53.974;-1.086;2023-04-21T09:05:34;23;19;
33264;PMS5003;31404;53.974;-1.086;2023-04-21T09:20:34;23;22;
33264;PMS5003;31404;53.974;-1.086;2023-04-21T09:25:37;25;19;
33264;PMS5003;31404;53.974;-1.086;2023-04-21T09:30:35;22;20;
33264;PMS5003;31404;53.974;-1.086;2023-04-21T09:35:35;28;21;
33264;PMS5003;31404;53.974;-1.086;2023-04-21T09:40:34;23;20;
33264;PMS5003;31404;53.974;-1.086;2023-04-21T09:45:34;21;21;
33264;PMS5003;31404;53.974;-1.086;2023-04-21T09:50:34;27;22;
33264;PMS5003;31404;53.974;-1.086;2023-04-21T09:55:34;23;21;
33264;PMS5003;31404;53.974;-1.086;2023-04-21T10:00:33;28;24;
33264;PMS5003;31404;53.974;-1.086;2023-04-21T10:05:34;27;24;
33264;PMS5003;31404;53.974;-1.086;2023-04-21T10:10:34;26;24;
33264;PMS5003;31404;53.974;-1.086;2023-04-21T10:15:37;29;27;
33264;PMS5003;31404;53.974;-1.086;2023-04-21T10:20:35;30;29;
33264;PMS5003;31404;53.974;-1.086;2023-04-21T10:25:34;29;29;
33264;PMS5003;31404;53.974;-1.086;2023-04-21T10:30:34;29;26;
33264;PMS5003;31404;53.974;-1.086;2023-04-21T10:40:34;34;31;
33264;PMS5003;31404;53.974;-1.086;2023-04-21T10:45:34;32;29;
33264;PMS5003;31404;53.974;-1.086;2023-04-21T10:50:34;38;32;
33264;PMS5003;31404;53.974;-1.086;2023-04-21T10:55:34;29;29;
33264;PMS5003;31404;53.974;-1.086;2023-04-21T11:00:34;38;35;
33264;PMS5003;31404;53.974;-1.086;2023-04-21T11:05:34;29;25;
33264;PMS5003;31404;53.974;-1.086;2023-04-21T11:15:34;36;28;
33264;PMS5003;31404;53.974;-1.086;2023-04-21T11:25:34;36;34;
33264;PMS5003;31404;53.974;-1.086;2023-04-21T11:30:34;39;34;
33264;PMS5003;31404;53.974;-1.086;2023-04-21T11:35:33;37;34;
33264;PMS5003;31404;53.974;-1.086;2023-04-21T11:45:34;43;33;
33264;PMS5003;31404;53.974;-1.086;2023-04-21T11:50:34;37;32;
33264;PMS5003;31404;53.974;-1.086;2023-04-21T11:55:34;38;33;
33264;PMS5003;31404;53.974;-1.086;2023-04-21T12:00:34;41;36;
33264;PMS5003;31404;53.974;-1.086;2023-04-21T12:05:34;46;39;
33264;PMS5003;31404;53.974;-1.086;2023-04-21T12:10:34;38;38;
33264;PMS5003;31404;53.974;-1.086;2023-04-21T12:15:34;40;35;
33264;PMS5003;31404;53.974;-1.086;2023-04-21T12:20:34;39;32;
33264;PMS5003;31404;53.974;-1.086;2023-04-21T12:25:34;35;34;
33264;PMS5003;31404;53.974;-1.086;2023-04-21T12:30:34;37;32;
33264;PMS5003;31404;53.974;-1.086;2023-04-21T12:35:34;40;34;
33264;PMS5003;31404;53.974;-1.086;2023-04-21T12:40:35;43;36;
33264;PMS5003;31404;53.974;-1.086;2023-04-21T12:45:34;40;30;
33264;PMS5003;31404;53.974;-1.086;2023-04-21T12:50:34;35;33;
33264;PMS5003;31404;53.974;-1.086;2023-04-21T12:55:34;37;35;
33264;PMS5003;31404;53.974;-1.086;2023-04-21T13:00:34;38;36;
33264;PMS5003;31404;53.974;-1.086;2023-04-21T13:05:34;44;39;
33264;PMS5003;31404;53.974;-1.086;2023-04-21T13:10:34;40;33;
33264;PMS5003;31404;53.974;-1.086;2023-04-21T13:15:34;31;31;
33264;PMS5003;31404;53.974;-1.086;2023-04-21T13:20:34;39;35;
33264;PMS5003;31404;53.974;-1.086;2023-04-21T13:25:34;28;28;
33264;PMS5003;31404;53.974;-1.086;2023-04-21T13:30:34;25;24;
33264;PMS5003;31404;53.974;-1.086;2023-04-21T13:35:34;43;37;
33264;PMS5003;31404;53.974;-1.086;2023-04-21T13:40:34;47;42;
33264;PMS5003;31404;53.974;-1.086;2023-04-21T13:45:33;44;36;
33264;PMS5003;31404;53.974;-1.086;2023-04-21T13:50:33;39;37;
33264;PMS5003;31404;53.974;-1.086;2023-04-21T13:55:34;33;30;
33264;PMS5003;31404;53.974;-1.086;2023-04-21T14:00:34;33;32;
33264;PMS5003;31404;53.974;-1.086;2023-04-21T14:05:34;28;25;
33264;PMS5003;31404;53.974;-1.086;2023-04-21T14:10:34;42;37;
33264;PMS5003;31404;53.974;-1.086;2023-04-21T14:15:34;27;24;
33264;PMS5003;31404;53.974;-1.086;2023-04-21T14:20:34;37;33;
33264;PMS5003;31404;53.974;-1.086;2023-04-21T14:25:34;45;39;
33264;PMS5003;31404;53.974;-1.086;2023-04-21T14:30:34;35;31;
33264;PMS5003;31404;53.974;-1.086;2023-04-21T14:35:35;43;41;
33264;PMS5003;31404;53.974;-1.086;2023-04-21T14:40:35;35;32;
33264;PMS5003;31404;53.974;-1.086;2023-04-21T14:45:34;34;29;
33264;PMS5003;31404;53.974;-1.086;2023-04-21T14:50:33;36;34;
33264;PMS5003;31404;53.974;-1.086;2023-04-21T14:55:34;36;29;
33264;PMS5003;31404;53.974;-1.086;2023-04-21T15:00:34;36;32;
33264;PMS5003;31404;53.974;-1.086;2023-04-21T15:05:34;31;30;
33264;PMS5003;31404;53.974;-1.086;2023-04-21T15:10:34;30;30;
33264;PMS5003;31404;53.974;-1.086;2023-04-21T15:15:34;37;36;
33264;PMS5003;31404;53.974;-1.086;2023-04-21T15:20:33;36;32;
33264;PMS5003;31404;53.974;-1.086;2023-04-21T15:25:34;14;12;
33264;PMS5003;31404;53.974;-1.086;2023-04-21T15:30:34;23;22;
33264;PMS5003;31404;53.974;-1.086;2023-04-21T15:35:34;29;24;
33264;PMS5003;31404;53.974;-1.086;2023-04-21T15:40:34;31;25;
33264;PMS5003;31404;53.974;-1.086;2023-04-21T15:45:34;30;26;
33264;PMS5003;31404;53.974;-1.086;2023-04-21T15:50:34;27;25;
33264;PMS5003;31404;53.974;-1.086;2023-04-21T15:55:34;32;26;
33264;PMS5003;31404;53.974;-1.086;2023-04-21T16:00:34;27;22;
33264;PMS5003;31404;53.974;-1.086;2023-04-21T16:05:34;28;27;
33264;PMS5003;31404;53.974;-1.086;2023-04-21T16:10:33;27;27;
33264;PMS5003;31404;53.974;-1.086;2023-04-21T16:15:33;28;27;
33264;PMS5003;31404;53.974;-1.086;2023-04-21T16:20:34;30;27;
33264;PMS5003;31404;53.974;-1.086;2023-04-21T16:25:34;33;29;
33264;PMS5003;31404;53.974;-1.086;2023-04-21T16:30:34;36;33;
33264;PMS5003;31404;53.974;-1.086;2023-04-21T16:35:34;41;40;
33264;PMS5003;31404;53.974;-1.086;2023-04-21T16:40:35;38;33;
33264;PMS5003;31404;53.974;-1.086;2023-04-21T16:45:28;36;30;
33264;PMS5003;31404;53.974;-1.086;2023-04-21T16:50:34;36;32;
33264;PMS5003;31404;53.974;-1.086;2023-04-21T16:55:34;30;28;
33264;PMS5003;31404;53.974;-1.086;2023-04-21T17:00:34;30;28;
33264;PMS5003;31404;53.974;-1.086;2023-04-21T17:05:34;25;21;
33264;PMS5003;31404;53.974;-1.086;2023-04-21T17:10:34;30;25;
33264;PMS5003;31404;53.974;-1.086;2023-04-21T17:15:34;38;35;
33264;PMS5003;31404;53.974;-1.086;2023-04-21T17:20:33;34;29;
33264;PMS5003;31404;53.974;-1.086;2023-04-21T17:25:34;31;25;
33264;PMS5003;31404;53.974;-1.086;2023-04-21T17:30:34;29;26;
33264;PMS5003;31404;53.974;-1.086;2023-04-21T17:35:33;40;31;
33264;PMS5003;31404;53.974;-1.086;2023-04-21T17:40:33;32;29;
33264;PMS5003;31404;53.974;-1.086;2023-04-21T17:45:34;36;32;
33264;PMS5003;31404;53.974;-1.086;2023-04-21T17:50:34;34;31;
33264;PMS5003;31404;53.974;-1.086;2023-04-21T17:55:34;23;23;
33264;PMS5003;31404;53.974;-1.086;2023-04-21T18:00:34;30;27;
33264;PMS5003;31404;53.974;-1.086;2023-04-21T18:05:33;28;26;
33264;PMS5003;31404;53.974;-1.086;2023-04-21T18:10:34;18;15;
33264;PMS5003;31404;53.974;-1.086;2023-04-21T18:15:34;21;21;
33264;PMS5003;31404;53.974;-1.086;2023-04-21T18:20:34;28;24;
33264;PMS5003;31404;53.974;-1.086;2023-04-21T18:25:34;19;17;
33264;PMS5003;31404;53.974;-1.086;2023-04-21T18:30:34;25;23;
33264;PMS5003;31404;53.974;-1.086;2023-04-21T18:35:33;22;19;
33264;PMS5003;31404;53.974;-1.086;2023-04-21T18:40:34;24;23;
33264;PMS5003;31404;53.974;-1.086;2023-04-21T18:45:34;31;28;
33264;PMS5003;31404;53.974;-1.086;2023-04-21T18:50:34;30;26;
33264;PMS5003;31404;53.974;-1.086;2023-04-21T18:55:34;28;23;
33264;PMS5003;31404;53.974;-1.086;2023-04-21T19:00:34;29;25;
33264;PMS5003;31404;53.974;-1.086;2023-04-21T19:05:34;34;28;
33264;PMS5003;31404;53.974;-1.086;2023-04-21T19:10:34;27;26;
33264;PMS5003;31404;53.974;-1.086;2023-04-21T19:15:34;31;29;
33264;PMS5003;31404;53.974;-1.086;2023-04-21T19:25:35;31;29;
33264;PMS5003;31404;53.974;-1.086;2023-04-21T19:30:34;28;26;
33264;PMS5003;31404;53.974;-1.086;2023-04-21T19:35:34;62;54;
33264;PMS5003;31404;53.974;-1.086;2023-04-21T19:40:35;33;26;
33264;PMS5003;31404;53.974;-1.086;2023-04-21T19:45:34;34;30;
33264;PMS5003;31404;53.974;-1.086;2023-04-21T19:50:34;34;34;
33264;PMS5003;31404;53.974;-1.086;2023-04-21T19:55:34;36;31;
33264;PMS5003;31404;53.974;-1.086;2023-04-21T20:00:34;30;27;
33264;PMS5003;31404;53.974;-1.086;2023-04-21T20:05:34;33;29;
33264;PMS5003;31404;53.974;-1.086;2023-04-21T20:10:34;39;35;
33264;PMS5003;31404;53.974;-1.086;2023-04-21T20:15:34;30;29;
33264;PMS5003;31404;53.974;-1.086;2023-04-21T20:20:34;32;27;
33264;PMS5003;31404;53.974;-1.086;2023-04-21T20:25:34;31;27;
33264;PMS5003;31404;53.974;-1.086;2023-04-21T20:30:34;30;26;
33264;PMS5003;31404;53.974;-1.086;2023-04-21T20:35:34;64;51;
33264;PMS5003;31404;53.974;-1.086;2023-04-21T20:40:34;33;30;
33264;PMS5003;31404;53.974;-1.086;2023-04-21T20:45:34;31;28;
33264;PMS5003;31404;53.974;-1.086;2023-04-21T20:50:34;35;30;
33264;PMS5003;31404;53.974;-1.086;2023-04-21T20:55:34;68;61;
33264;PMS5003;31404;53.974;-1.086;2023-04-21T21:00:34;40;29;
33264;PMS5003;31404;53.974;-1.086;2023-04-21T21:05:34;31;25;
33264;PMS5003;31404;53.974;-1.086;2023-04-21T21:10:34;28;27;
33264;PMS5003;31404;53.974;-1.086;2023-04-21T21:15:34;28;28;
33264;PMS5003;31404;53.974;-1.086;2023-04-21T21:20:34;35;32;
33264;PMS5003;31404;53.974;-1.086;2023-04-21T21:25:34;32;31;
33264;PMS5003;31404;53.974;-1.086;2023-04-21T21:30:34;37;35;
33264;PMS5003;31404;53.974;-1.086;2023-04-21T21:40:34;36;31;
33264;PMS5003;31404;53.974;-1.086;2023-04-21T21:45:34;40;31;
33264;PMS5003;31404;53.974;-1.086;2023-04-21T21:50:34;35;33;
33264;PMS5003;31404;53.974;-1.086;2023-04-21T21:55:34;48;41;
33264;PMS5003;31404;53.974;-1.086;2023-04-21T22:00:34;38;35;
33264;PMS5003;31404;53.974;-1.086;2023-04-21T22:05:34;33;28;
33264;PMS5003;31404;53.974;-1.086;2023-04-21T22:10:34;35;28;
33264;PMS5003;31404;53.974;-1.086;2023-04-21T22:15:34;34;30;
33264;PMS5003;31404;53.974;-1.086;2023-04-21T22:20:34;26;24;
33264;PMS5003;31404;53.974;-1.086;2023-04-21T22:25:34;37;30;
33264;PMS5003;31404;53.974;-1.086;2023-04-21T22:30:34;22;22;
33264;PMS5003;31404;53.974;-1.086;2023-04-21T22:35:34;27;26;
33264;PMS5003;31404;53.974;-1.086;2023-04-21T22:40:34;28;24;
33264;PMS5003;31404;53.974;-1.086;2023-04-21T22:45:33;25;24;
33264;PMS5003;31404;53.974;-1.086;2023-04-21T22:50:34;22;22;
33264;PMS5003;31404;53.974;-1.086;2023-04-21T22:55:34;16;14;
33264;PMS5003;31404;53.974;-1.086;2023-04-21T23:00:35;22;20;
33264;PMS5003;31404;53.974;-1.086;2023-04-21T23:05:34;20;19;
33264;PMS5003;31404;53.974;-1.086;2023-04-21T23:10:34;20;19;
33264;PMS5003;31404;53.974;-1.086;2023-04-21T23:15:34;21;17;
33264;PMS5003;31404;53.974;-1.086;2023-04-21T23:20:34;15;15;
33264;PMS5003;31404;53.974;-1.086;2023-04-21T23:25:34;17;16;
33264;PMS5003;31404;53.974;-1.086;2023-04-21T23:30:34;21;18;
33264;PMS5003;31404;53.974;-1.086;2023-04-21T23:35:34;11;9;
33264;PMS5003;31404;53.974;-1.086;2023-04-21T23:40:34;10;9;
33264;PMS5003;31404;53.974;-1.086;2023-04-21T23:45:34;12;9;
33264;PMS5003;31404;53.974;-1.086;2023-04-21T23:50:34;11;9;
33264;PMS5003;31404;53.974;-1.086;2023-04-21T23:55:36;6;6;
